Gesamt
Tropicana Airport (Tropicana, WA) YTRA Wetter
|
Tropicana, WA (YTRA)
Klarer Himmel
Windstill |
|
8 °C |
YTRA Terminal Area Forecast
| Date | Time (AWST) | Flight Rules | Wind Dir. | Speed | Type | Height AGL (ft) | Visibility | Remarks | ||||||
|---|---|---|---|---|---|---|---|---|---|---|---|---|---|---|
Kürzlicher METAR-Verlauf für YTRA
| Date | Time (AWST) | Flight Rules | Wind Dir. | Speed | Type | Height AGL (ft) | Visibility | Temp (°C) | Temp (°F) | Dew Point (°C) | Dew Point (°F) | Rel. Humid. | Pressure | Density Altitude | Remarks |
|---|---|---|---|---|---|---|---|---|---|---|---|---|---|---|---|
| 03-Mai | 00:00 | VFR | 230° | 3 kt | 10000 meters | 8° | 46° | 5° | 41° | 81% | 1021 mb | 268 ft | |||
| 02-Mai | 23:00 | VFR | 260° | 2 kt | 10000 meters | 9° | 48° | 6° | 42° | 81% | 1022 mb | 359 ft | |||
| 02-Mai | 22:00 | VFR | 200° | 4 kt | 10000 meters | 10° | 50° | 5° | 41° | 71% | 1022 mb | 479 ft | |||
| 02-Mai | 21:00 | VFR | 200° | 4 kt | 10000 meters | 11° | 51° | 5° | 41° | 66% | 1021 mb | 628 ft | |||
| 02-Mai | 20:00 | VFR | 200° | 4 kt | 10000 meters | 11° | 51° | 5° | 41° | 66% | 1021 mb | 628 ft | |||
| 02-Mai | 19:00 | VFR | 210° | 4 kt | 10000 meters | 13° | 55° | 4° | 39° | 54% | 1021 mb | 868 ft | |||
| 02-Mai | 18:00 | VFR | 210° | 3 kt | 10000 meters | 14° | 57° | 4° | 39° | 51% | 1020 mb | 1.018 ft | |||
| 02-Mai | 17:00 | VFR | 210° | 4 kt | 10000 meters | 16° | 60° | 2° | 35° | 39% | 1019 mb | 1.288 ft | |||
| 02-Mai | 16:00 | VFR | 200° | 6 kt | 10000 meters | 17° | 62° | 2° | 35° | 36% | 1019 mb | 1.408 ft | |||
| 02-Mai | 15:00 | VFR | 190° | 7 kt | 10000 meters | 18° | 64° | 1° | 33° | 32% | 1019 mb | 1.528 ft | |||
| 02-Mai | 14:00 | VFR | 190° | 7 kt | 10000 meters | 18° | 64° | 2° | 35° | 34% | 1019 mb | 1.528 ft | |||
| 02-Mai | 13:00 | VFR | 210° | 8 kt | 10000 meters | 17° | 62° | 4° | 39° | 42% | 1019 mb | 1.408 ft | |||
| 02-Mai | 12:00 | VFR | 170° | 6 kt | 10000 meters | 16° | 60° | 5° | 41° | 48% | 1020 mb | 1.258 ft | |||
| 02-Mai | 11:00 | VFR | 180° | 7 kt | 10000 meters | 15° | 59° | 4° | 39° | 48% | 1021 mb | 1.108 ft | |||
| 02-Mai | 10:00 | VFR | 190° | 6 kt | 10000 meters | 14° | 57° | 5° | 41° | 55% | 1021 mb | 988 ft | |||
| 02-Mai | 09:00 | VFR | 210° | 5 kt | 10000 meters | 12° | 53° | 6° | 42° | 67% | 1021 mb | 748 ft | |||
| 02-Mai | 08:00 | VFR | 220° | 8 kt | 10000 meters | 10° | 50° | 5° | 41° | 71% | 1021 mb | 508 ft | |||
| 02-Mai | 07:00 | VFR | 250° | 6 kt | 10000 meters | 7° | 44° | 4° | 39° | 81% | 1020 mb | 178 ft | |||
| 02-Mai | 06:00 | VFR | 250° | 6 kt | 10000 meters | 6° | 42° | 4° | 39° | 87% | 1020 mb | 58 ft | |||
| 02-Mai | 05:00 | VFR | 260° | 6 kt | 10000 meters | 6° | 42° | 3° | 37° | 81% | 1019 mb | 88 ft | |||
| 02-Mai | 04:00 | VFR | 260° | 5 kt | 10000 meters | 6° | 42° | 4° | 39° | 87% | 1019 mb | 88 ft | |||
| 02-Mai | 03:00 | VFR | 270° | 5 kt | 10000 meters | 8° | 46° | 4° | 39° | 76% | 1019 mb | 328 ft | |||
| 02-Mai | 02:00 | VFR | 260° | 5 kt | 10000 meters | 8° | 46° | 4° | 39° | 76% | 1019 mb | 328 ft | |||
| 02-Mai | 01:00 | VFR | 270° | 6 kt | 10000 meters | 8° | 46° | 4° | 39° | 76% | 1019 mb | 328 ft |
Anmelden
| Ihr Browser wird nicht unterstützt. aktualisieren Sie Ihren Browser |
